sensor_id;sensor_type;location;lat;lon;timestamp;P1;durP1;ratioP1;P2;durP2;ratioP2
64188;SDS011;50493;50.970;10.082;2023-07-13T00:01:11;2.55;;;1.30;;
64188;SDS011;50493;50.970;10.082;2023-07-13T00:03:36;1.63;;;1.40;;
64188;SDS011;50493;50.970;10.082;2023-07-13T00:06:02;1.98;;;1.50;;
64188;SDS011;50493;50.970;10.082;2023-07-13T00:08:29;1.92;;;1.40;;
64188;SDS011;50493;50.970;10.082;2023-07-13T00:10:55;2.33;;;1.48;;
64188;SDS011;50493;50.970;10.082;2023-07-13T00:13:21;1.77;;;1.38;;
64188;SDS011;50493;50.970;10.082;2023-07-13T00:15:47;3.97;;;1.60;;
64188;SDS011;50493;50.970;10.082;2023-07-13T00:18:13;1.55;;;1.40;;
64188;SDS011;50493;50.970;10.082;2023-07-13T00:20:38;1.95;;;1.42;;
64188;SDS011;50493;50.970;10.082;2023-07-13T00:23:06;2.50;;;1.50;;
64188;SDS011;50493;50.970;10.082;2023-07-13T00:25:31;2.10;;;1.50;;
64188;SDS011;50493;50.970;10.082;2023-07-13T00:27:57;1.80;;;1.60;;
64188;SDS011;50493;50.970;10.082;2023-07-13T00:30:22;1.75;;;1.40;;
64188;SDS011;50493;50.970;10.082;2023-07-13T00:32:50;2.13;;;1.40;;
64188;SDS011;50493;50.970;10.082;2023-07-13T00:35:16;1.63;;;1.20;;
64188;SDS011;50493;50.970;10.082;2023-07-13T00:37:41;2.08;;;1.35;;
64188;SDS011;50493;50.970;10.082;2023-07-13T00:40:07;1.83;;;1.40;;
64188;SDS011;50493;50.970;10.082;2023-07-13T00:42:36;3.13;;;1.50;;
64188;SDS011;50493;50.970;10.082;2023-07-13T00:45:05;2.42;;;1.65;;
64188;SDS011;50493;50.970;10.082;2023-07-13T00:47:53;1.85;;;1.50;;
64188;SDS011;50493;50.970;10.082;2023-07-13T00:50:19;3.10;;;1.48;;
64188;SDS011;50493;50.970;10.082;2023-07-13T00:52:46;2.20;;;1.50;;
64188;SDS011;50493;50.970;10.082;2023-07-13T00:55:14;2.08;;;1.52;;
64188;SDS011;50493;50.970;10.082;2023-07-13T00:57:41;2.35;;;1.50;;
64188;SDS011;50493;50.970;10.082;2023-07-13T01:00:07;1.88;;;1.40;;
64188;SDS011;50493;50.970;10.082;2023-07-13T01:02:34;2.55;;;1.52;;
64188;SDS011;50493;50.970;10.082;2023-07-13T01:05:04;1.58;;;1.48;;
64188;SDS011;50493;50.970;10.082;2023-07-13T01:07:34;2.67;;;1.60;;
64188;SDS011;50493;50.970;10.082;2023-07-13T01:09:59;2.67;;;1.60;;
64188;SDS011;50493;50.970;10.082;2023-07-13T01:12:24;1.58;;;1.45;;
64188;SDS011;50493;50.970;10.082;2023-07-13T01:14:56;2.38;;;1.70;;
64188;SDS011;50493;50.970;10.082;2023-07-13T01:17:22;1.85;;;1.60;;
64188;SDS011;50493;50.970;10.082;2023-07-13T01:19:47;2.70;;;1.60;;
64188;SDS011;50493;50.970;10.082;2023-07-13T01:22:14;2.47;;;1.60;;
64188;SDS011;50493;50.970;10.082;2023-07-13T01:24:44;2.15;;;1.60;;
64188;SDS011;50493;50.970;10.082;2023-07-13T01:27:11;1.70;;;1.52;;
64188;SDS011;50493;50.970;10.082;2023-07-13T01:29:39;1.92;;;1.60;;
64188;SDS011;50493;50.970;10.082;2023-07-13T01:34:35;2.17;;;1.67;;
64188;SDS011;50493;50.970;10.082;2023-07-13T01:37:00;2.25;;;1.33;;
64188;SDS011;50493;50.970;10.082;2023-07-13T01:39:27;2.05;;;1.70;;
64188;SDS011;50493;50.970;10.082;2023-07-13T01:41:52;2.33;;;1.60;;
64188;SDS011;50493;50.970;10.082;2023-07-13T01:44:17;2.25;;;1.50;;
64188;SDS011;50493;50.970;10.082;2023-07-13T01:46:43;2.30;;;1.50;;
64188;SDS011;50493;50.970;10.082;2023-07-13T01:49:08;2.70;;;1.75;;
64188;SDS011;50493;50.970;10.082;2023-07-13T01:51:33;2.35;;;1.60;;
64188;SDS011;50493;50.970;10.082;2023-07-13T01:53:59;3.03;;;1.65;;
64188;SDS011;50493;50.970;10.082;2023-07-13T01:56:25;2.83;;;1.60;;
64188;SDS011;50493;50.970;10.082;2023-07-13T01:58:51;2.67;;;1.70;;
64188;SDS011;50493;50.970;10.082;2023-07-13T02:01:17;3.42;;;1.70;;
64188;SDS011;50493;50.970;10.082;2023-07-13T02:03:42;2.28;;;1.73;;
64188;SDS011;50493;50.970;10.082;2023-07-13T02:06:08;3.05;;;1.90;;
64188;SDS011;50493;50.970;10.082;2023-07-13T02:08:33;2.38;;;1.70;;
64188;SDS011;50493;50.970;10.082;2023-07-13T02:10:59;2.53;;;1.90;;
64188;SDS011;50493;50.970;10.082;2023-07-13T02:13:26;3.25;;;1.88;;
64188;SDS011;50493;50.970;10.082;2023-07-13T02:15:52;2.92;;;1.92;;
64188;SDS011;50493;50.970;10.082;2023-07-13T02:18:17;3.15;;;2.10;;
64188;SDS011;50493;50.970;10.082;2023-07-13T02:20:42;2.58;;;1.50;;
64188;SDS011;50493;50.970;10.082;2023-07-13T02:23:08;3.03;;;1.92;;
64188;SDS011;50493;50.970;10.082;2023-07-13T02:25:33;3.45;;;1.80;;
64188;SDS011;50493;50.970;10.082;2023-07-13T02:27:58;2.63;;;1.70;;
64188;SDS011;50493;50.970;10.082;2023-07-13T02:30:25;2.80;;;1.65;;
64188;SDS011;50493;50.970;10.082;2023-07-13T02:32:51;2.88;;;1.50;;
64188;SDS011;50493;50.970;10.082;2023-07-13T02:35:16;2.22;;;1.70;;
64188;SDS011;50493;50.970;10.082;2023-07-13T02:37:42;2.47;;;1.83;;
64188;SDS011;50493;50.970;10.082;2023-07-13T02:40:07;2.80;;;1.73;;
64188;SDS011;50493;50.970;10.082;2023-07-13T02:42:33;2.75;;;1.88;;
64188;SDS011;50493;50.970;10.082;2023-07-13T02:44:59;3.22;;;2.10;;
64188;SDS011;50493;50.970;10.082;2023-07-13T02:47:25;2.20;;;1.70;;
64188;SDS011;50493;50.970;10.082;2023-07-13T02:49:51;2.40;;;1.70;;
64188;SDS011;50493;50.970;10.082;2023-07-13T02:52:17;2.05;;;1.63;;
64188;SDS011;50493;50.970;10.082;2023-07-13T02:54:42;3.38;;;1.70;;
64188;SDS011;50493;50.970;10.082;2023-07-13T02:57:07;2.83;;;1.80;;
64188;SDS011;50493;50.970;10.082;2023-07-13T02:59:33;3.40;;;1.83;;
64188;SDS011;50493;50.970;10.082;2023-07-13T03:01:58;2.53;;;1.85;;
64188;SDS011;50493;50.970;10.082;2023-07-13T03:04:26;2.72;;;1.70;;
64188;SDS011;50493;50.970;10.082;2023-07-13T03:06:52;4.10;;;2.17;;
64188;SDS011;50493;50.970;10.082;2023-07-13T03:09:17;2.83;;;1.83;;
64188;SDS011;50493;50.970;10.082;2023-07-13T03:11:42;2.03;;;1.63;;
64188;SDS011;50493;50.970;10.082;2023-07-13T03:14:08;3.20;;;1.83;;
64188;SDS011;50493;50.970;10.082;2023-07-13T03:16:33;2.72;;;1.90;;
64188;SDS011;50493;50.970;10.082;2023-07-13T03:18:59;2.67;;;1.70;;
64188;SDS011;50493;50.970;10.082;2023-07-13T03:21:26;2.63;;;1.65;;
64188;SDS011;50493;50.970;10.082;2023-07-13T03:23:51;3.47;;;1.90;;
64188;SDS011;50493;50.970;10.082;2023-07-13T03:26:17;3.22;;;1.77;;
64188;SDS011;50493;50.970;10.082;2023-07-13T03:28:44;2.47;;;1.80;;
64188;SDS011;50493;50.970;10.082;2023-07-13T03:31:11;3.50;;;2.00;;
64188;SDS011;50493;50.970;10.082;2023-07-13T03:33:38;3.00;;;2.00;;
64188;SDS011;50493;50.970;10.082;2023-07-13T03:36:03;3.50;;;1.80;;
64188;SDS011;50493;50.970;10.082;2023-07-13T03:38:31;2.67;;;1.83;;
64188;SDS011;50493;50.970;10.082;2023-07-13T03:40:57;3.78;;;2.00;;
64188;SDS011;50493;50.970;10.082;2023-07-13T03:43:23;2.05;;;1.60;;
64188;SDS011;50493;50.970;10.082;2023-07-13T03:45:48;2.28;;;1.90;;
64188;SDS011;50493;50.970;10.082;2023-07-13T03:48:14;2.13;;;1.80;;
64188;SDS011;50493;50.970;10.082;2023-07-13T03:50:39;2.55;;;1.80;;
64188;SDS011;50493;50.970;10.082;2023-07-13T03:53:05;2.30;;;1.73;;
64188;SDS011;50493;50.970;10.082;2023-07-13T03:55:31;3.30;;;2.03;;
64188;SDS011;50493;50.970;10.082;2023-07-13T03:57:58;3.03;;;1.90;;
64188;SDS011;50493;50.970;10.082;2023-07-13T04:00:25;5.15;;;1.80;;
64188;SDS011;50493;50.970;10.082;2023-07-13T04:02:50;2.38;;;1.80;;
64188;SDS011;50493;50.970;10.082;2023-07-13T04:05:16;3.20;;;2.00;;
64188;SDS011;50493;50.970;10.082;2023-07-13T04:07:41;3.08;;;1.75;;
64188;SDS011;50493;50.970;10.082;2023-07-13T04:10:07;2.55;;;1.85;;
64188;SDS011;50493;50.970;10.082;2023-07-13T04:12:34;2.90;;;1.90;;
64188;SDS011;50493;50.970;10.082;2023-07-13T04:14:59;2.83;;;1.80;;
64188;SDS011;50493;50.970;10.082;2023-07-13T04:17:25;3.25;;;1.85;;
64188;SDS011;50493;50.970;10.082;2023-07-13T04:19:50;3.33;;;1.80;;
64188;SDS011;50493;50.970;10.082;2023-07-13T04:22:16;3.50;;;1.80;;
64188;SDS011;50493;50.970;10.082;2023-07-13T04:24:41;2.70;;;1.85;;
64188;SDS011;50493;50.970;10.082;2023-07-13T04:27:07;2.13;;;1.80;;
64188;SDS011;50493;50.970;10.082;2023-07-13T04:29:33;2.50;;;1.75;;
64188;SDS011;50493;50.970;10.082;2023-07-13T04:31:59;3.30;;;2.03;;
64188;SDS011;50493;50.970;10.082;2023-07-13T04:34:24;3.80;;;1.92;;
64188;SDS011;50493;50.970;10.082;2023-07-13T04:36:50;2.30;;;1.77;;
64188;SDS011;50493;50.970;10.082;2023-07-13T04:39:15;3.38;;;1.98;;
64188;SDS011;50493;50.970;10.082;2023-07-13T04:41:41;2.67;;;1.80;;
64188;SDS011;50493;50.970;10.082;2023-07-13T04:44:06;4.63;;;2.67;;
64188;SDS011;50493;50.970;10.082;2023-07-13T04:46:33;4.90;;;2.17;;
64188;SDS011;50493;50.970;10.082;2023-07-13T04:48:58;5.45;;;2.80;;
64188;SDS011;50493;50.970;10.082;2023-07-13T04:51:24;3.65;;;1.90;;
64188;SDS011;50493;50.970;10.082;2023-07-13T04:53:49;2.88;;;2.00;;
64188;SDS011;50493;50.970;10.082;2023-07-13T04:56:15;3.80;;;2.00;;
64188;SDS011;50493;50.970;10.082;2023-07-13T04:58:40;3.38;;;2.15;;
64188;SDS011;50493;50.970;10.082;2023-07-13T05:01:05;2.60;;;1.92;;
64188;SDS011;50493;50.970;10.082;2023-07-13T05:03:33;2.58;;;2.00;;
64188;SDS011;50493;50.970;10.082;2023-07-13T05:06:00;3.58;;;1.90;;
64188;SDS011;50493;50.970;10.082;2023-07-13T05:08:27;3.55;;;1.80;;
64188;SDS011;50493;50.970;10.082;2023-07-13T05:10:53;2.55;;;1.80;;
64188;SDS011;50493;50.970;10.082;2023-07-13T05:13:18;4.88;;;2.75;;
64188;SDS011;50493;50.970;10.082;2023-07-13T05:15:44;4.20;;;2.90;;
64188;SDS011;50493;50.970;10.082;2023-07-13T05:18:09;4.10;;;2.70;;
64188;SDS011;50493;50.970;10.082;2023-07-13T05:20:36;10.25;;;6.65;;
64188;SDS011;50493;50.970;10.082;2023-07-13T05:23:02;4.45;;;3.03;;
64188;SDS011;50493;50.970;10.082;2023-07-13T05:25:27;6.43;;;4.20;;
64188;SDS011;50493;50.970;10.082;2023-07-13T05:27:52;5.97;;;3.95;;
64188;SDS011;50493;50.970;10.082;2023-07-13T05:30:18;4.88;;;3.10;;
64188;SDS011;50493;50.970;10.082;2023-07-13T05:32:43;5.65;;;3.30;;
64188;SDS011;50493;50.970;10.082;2023-07-13T05:35:09;9.07;;;3.28;;
64188;SDS011;50493;50.970;10.082;2023-07-13T05:37:36;7.60;;;3.70;;
64188;SDS011;50493;50.970;10.082;2023-07-13T05:40:02;8.25;;;3.90;;
64188;SDS011;50493;50.970;10.082;2023-07-13T05:42:29;7.50;;;3.90;;
64188;SDS011;50493;50.970;10.082;2023-07-13T05:44:56;8.25;;;3.53;;
64188;SDS011;50493;50.970;10.082;2023-07-13T05:47:21;6.18;;;3.70;;
64188;SDS011;50493;50.970;10.082;2023-07-13T05:49:47;7.63;;;3.58;;
64188;SDS011;50493;50.970;10.082;2023-07-13T05:52:12;6.50;;;3.25;;
64188;SDS011;50493;50.970;10.082;2023-07-13T05:54:39;8.30;;;3.30;;
64188;SDS011;50493;50.970;10.082;2023-07-13T05:57:04;4.22;;;3.00;;
64188;SDS011;50493;50.970;10.082;2023-07-13T05:59:30;9.07;;;3.42;;
64188;SDS011;50493;50.970;10.082;2023-07-13T06:01:55;6.15;;;3.05;;
64188;SDS011;50493;50.970;10.082;2023-07-13T06:04:21;6.65;;;2.50;;
64188;SDS011;50493;50.970;10.082;2023-07-13T06:06:47;4.60;;;2.83;;
64188;SDS011;50493;50.970;10.082;2023-07-13T06:09:13;5.18;;;2.50;;
64188;SDS011;50493;50.970;10.082;2023-07-13T06:11:39;5.82;;;2.15;;
64188;SDS011;50493;50.970;10.082;2023-07-13T06:14:05;3.50;;;2.00;;
64188;SDS011;50493;50.970;10.082;2023-07-13T06:16:30;3.60;;;1.90;;
64188;SDS011;50493;50.970;10.082;2023-07-13T06:18:55;5.28;;;2.80;;
64188;SDS011;50493;50.970;10.082;2023-07-13T06:21:21;4.07;;;2.30;;
64188;SDS011;50493;50.970;10.082;2023-07-13T06:23:48;3.30;;;1.92;;
64188;SDS011;50493;50.970;10.082;2023-07-13T06:26:14;4.07;;;1.80;;
64188;SDS011;50493;50.970;10.082;2023-07-13T06:28:42;3.95;;;2.30;;
64188;SDS011;50493;50.970;10.082;2023-07-13T06:31:08;3.50;;;2.20;;
64188;SDS011;50493;50.970;10.082;2023-07-13T06:33:34;4.97;;;2.28;;
64188;SDS011;50493;50.970;10.082;2023-07-13T06:36:00;3.70;;;2.00;;
64188;SDS011;50493;50.970;10.082;2023-07-13T06:38:26;3.65;;;2.28;;
64188;SDS011;50493;50.970;10.082;2023-07-13T06:40:51;5.05;;;1.70;;
64188;SDS011;50493;50.970;10.082;2023-07-13T06:43:16;3.65;;;2.33;;
64188;SDS011;50493;50.970;10.082;2023-07-13T06:45:45;4.47;;;2.40;;
64188;SDS011;50493;50.970;10.082;2023-07-13T06:48:13;5.00;;;1.73;;
64188;SDS011;50493;50.970;10.082;2023-07-13T06:50:39;3.60;;;2.05;;
64188;SDS011;50493;50.970;10.082;2023-07-13T06:53:04;3.45;;;2.10;;
64188;SDS011;50493;50.970;10.082;2023-07-13T06:55:29;3.60;;;1.98;;
64188;SDS011;50493;50.970;10.082;2023-07-13T06:57:55;3.05;;;1.85;;
64188;SDS011;50493;50.970;10.082;2023-07-13T07:00:20;4.75;;;1.70;;
64188;SDS011;50493;50.970;10.082;2023-07-13T07:02:47;2.45;;;1.48;;
64188;SDS011;50493;50.970;10.082;2023-07-13T07:05:12;3.90;;;2.10;;
64188;SDS011;50493;50.970;10.082;2023-07-13T07:07:38;3.40;;;2.00;;
64188;SDS011;50493;50.970;10.082;2023-07-13T07:10:03;2.95;;;1.70;;
64188;SDS011;50493;50.970;10.082;2023-07-13T07:12:29;3.60;;;2.10;;
64188;SDS011;50493;50.970;10.082;2023-07-13T07:14:55;5.00;;;1.80;;
64188;SDS011;50493;50.970;10.082;2023-07-13T07:17:20;2.50;;;1.60;;
64188;SDS011;50493;50.970;10.082;2023-07-13T07:19:47;4.47;;;1.63;;
64188;SDS011;50493;50.970;10.082;2023-07-13T07:22:12;3.53;;;1.75;;
64188;SDS011;50493;50.970;10.082;2023-07-13T07:24:38;2.28;;;1.67;;
64188;SDS011;50493;50.970;10.082;2023-07-13T07:27:03;2.28;;;1.52;;
64188;SDS011;50493;50.970;10.082;2023-07-13T07:29:29;3.15;;;1.80;;
64188;SDS011;50493;50.970;10.082;2023-07-13T07:31:54;2.92;;;1.70;;
64188;SDS011;50493;50.970;10.082;2023-07-13T07:34:20;3.25;;;1.70;;
64188;SDS011;50493;50.970;10.082;2023-07-13T07:36:46;3.00;;;1.80;;
64188;SDS011;50493;50.970;10.082;2023-07-13T07:39:12;4.20;;;1.60;;
64188;SDS011;50493;50.970;10.082;2023-07-13T07:41:37;3.33;;;1.75;;
64188;SDS011;50493;50.970;10.082;2023-07-13T07:44:03;2.95;;;1.80;;
64188;SDS011;50493;50.970;10.082;2023-07-13T07:46:29;3.60;;;1.33;;
64188;SDS011;50493;50.970;10.082;2023-07-13T07:48:55;2.83;;;1.42;;
64188;SDS011;50493;50.970;10.082;2023-07-13T07:51:20;3.55;;;1.60;;
64188;SDS011;50493;50.970;10.082;2023-07-13T07:53:47;3.67;;;1.52;;
64188;SDS011;50493;50.970;10.082;2023-07-13T07:56:12;3.10;;;1.70;;
64188;SDS011;50493;50.970;10.082;2023-07-13T07:58:38;3.55;;;1.75;;
64188;SDS011;50493;50.970;10.082;2023-07-13T08:01:03;2.30;;;1.50;;
64188;SDS011;50493;50.970;10.082;2023-07-13T08:03:29;2.95;;;1.58;;
64188;SDS011;50493;50.970;10.082;2023-07-13T08:05:55;2.65;;;1.60;;
64188;SDS011;50493;50.970;10.082;2023-07-13T08:08:20;1.98;;;1.10;;
64188;SDS011;50493;50.970;10.082;2023-07-13T08:10:47;4.72;;;1.30;;
64188;SDS011;50493;50.970;10.082;2023-07-13T08:13:13;4.05;;;1.30;;
64188;SDS011;50493;50.970;10.082;2023-07-13T08:15:38;2.10;;;1.35;;
64188;SDS011;50493;50.970;10.082;2023-07-13T08:18:03;2.65;;;1.30;;
64188;SDS011;50493;50.970;10.082;2023-07-13T08:20:29;2.78;;;1.50;;
64188;SDS011;50493;50.970;10.082;2023-07-13T08:22:54;2.22;;;1.13;;
64188;SDS011;50493;50.970;10.082;2023-07-13T08:25:19;2.22;;;1.40;;
64188;SDS011;50493;50.970;10.082;2023-07-13T08:27:47;2.25;;;1.30;;
64188;SDS011;50493;50.970;10.082;2023-07-13T08:30:12;3.10;;;1.10;;
64188;SDS011;50493;50.970;10.082;2023-07-13T08:32:37;3.35;;;1.27;;
64188;SDS011;50493;50.970;10.082;2023-07-13T08:35:03;2.28;;;1.30;;
64188;SDS011;50493;50.970;10.082;2023-07-13T08:37:30;4.38;;;1.20;;
64188;SDS011;50493;50.970;10.082;2023-07-13T08:39:55;1.98;;;1.27;;
64188;SDS011;50493;50.970;10.082;2023-07-13T08:42:25;1.83;;;1.35;;
64188;SDS011;50493;50.970;10.082;2023-07-13T08:47:28;2.70;;;1.35;;
64188;SDS011;50493;50.970;10.082;2023-07-13T08:49:58;2.17;;;1.00;;
64188;SDS011;50493;50.970;10.082;2023-07-13T08:52:26;1.95;;;1.30;;
64188;SDS011;50493;50.970;10.082;2023-07-13T08:54:56;2.40;;;1.30;;
64188;SDS011;50493;50.970;10.082;2023-07-13T08:57:27;2.63;;;1.20;;
64188;SDS011;50493;50.970;10.082;2023-07-13T08:59:58;3.90;;;1.13;;
64188;SDS011;50493;50.970;10.082;2023-07-13T09:02:26;3.40;;;1.10;;
64188;SDS011;50493;50.970;10.082;2023-07-13T09:04:54;1.63;;;1.20;;
64188;SDS011;50493;50.970;10.082;2023-07-13T09:07:27;2.25;;;1.20;;
64188;SDS011;50493;50.970;10.082;2023-07-13T09:10:03;2.20;;;0.90;;
64188;SDS011;50493;50.970;10.082;2023-07-13T09:12:40;2.00;;;1.10;;
64188;SDS011;50493;50.970;10.082;2023-07-13T09:15:21;2.00;;;1.13;;
64188;SDS011;50493;50.970;10.082;2023-07-13T09:17:51;2.33;;;1.20;;
64188;SDS011;50493;50.970;10.082;2023-07-13T09:20:19;2.17;;;1.15;;
64188;SDS011;50493;50.970;10.082;2023-07-13T09:22:50;3.42;;;1.00;;
64188;SDS011;50493;50.970;10.082;2023-07-13T09:25:20;1.90;;;1.10;;
64188;SDS011;50493;50.970;10.082;2023-07-13T09:27:49;1.50;;;1.25;;
64188;SDS011;50493;50.970;10.082;2023-07-13T09:30:27;2.00;;;1.10;;
64188;SDS011;50493;50.970;10.082;2023-07-13T09:32:59;1.63;;;1.40;;
64188;SDS011;50493;50.970;10.082;2023-07-13T09:35:25;1.88;;;1.15;;
64188;SDS011;50493;50.970;10.082;2023-07-13T09:37:56;1.65;;;1.20;;
64188;SDS011;50493;50.970;10.082;2023-07-13T09:40:24;1.60;;;1.10;;
64188;SDS011;50493;50.970;10.082;2023-07-13T09:42:54;2.05;;;1.17;;
64188;SDS011;50493;50.970;10.082;2023-07-13T09:45:27;2.78;;;1.20;;
64188;SDS011;50493;50.970;10.082;2023-07-13T09:48:04;2.13;;;1.27;;
64188;SDS011;50493;50.970;10.082;2023-07-13T09:52:56;3.57;;;1.30;;
64188;SDS011;50493;50.970;10.082;2023-07-13T09:55:25;1.45;;;1.10;;
64188;SDS011;50493;50.970;10.082;2023-07-13T09:57:54;2.00;;;1.13;;
64188;SDS011;50493;50.970;10.082;2023-07-13T10:00:21;1.75;;;1.20;;
64188;SDS011;50493;50.970;10.082;2023-07-13T10:05:22;2.58;;;1.40;;
64188;SDS011;50493;50.970;10.082;2023-07-13T10:07:49;3.13;;;1.30;;
64188;SDS011;50493;50.970;10.082;2023-07-13T10:10:16;2.17;;;1.17;;
64188;SDS011;50493;50.970;10.082;2023-07-13T10:12:45;2.10;;;1.30;;
64188;SDS011;50493;50.970;10.082;2023-07-13T10:15:13;3.15;;;1.08;;
64188;SDS011;50493;50.970;10.082;2023-07-13T10:17:41;2.63;;;1.10;;
64188;SDS011;50493;50.970;10.082;2023-07-13T10:20:10;2.20;;;1.20;;
64188;SDS011;50493;50.970;10.082;2023-07-13T10:22:39;2.13;;;1.00;;
64188;SDS011;50493;50.970;10.082;2023-07-13T10:25:16;1.63;;;0.80;;
64188;SDS011;50493;50.970;10.082;2023-07-13T10:27:44;4.05;;;1.10;;
64188;SDS011;50493;50.970;10.082;2023-07-13T10:30:12;1.70;;;1.15;;
64188;SDS011;50493;50.970;10.082;2023-07-13T10:32:42;1.67;;;1.00;;
64188;SDS011;50493;50.970;10.082;2023-07-13T10:35:10;3.03;;;1.23;;
64188;SDS011;50493;50.970;10.082;2023-07-13T10:37:39;0.98;;;0.75;;
64188;SDS011;50493;50.970;10.082;2023-07-13T10:40:12;2.53;;;1.05;;
64188;SDS011;50493;50.970;10.082;2023-07-13T10:42:43;2.80;;;0.93;;
64188;SDS011;50493;50.970;10.082;2023-07-13T10:45:13;2.83;;;1.10;;
64188;SDS011;50493;50.970;10.082;2023-07-13T10:47:40;2.28;;;1.30;;
64188;SDS011;50493;50.970;10.082;2023-07-13T10:50:07;1.92;;;1.27;;
64188;SDS011;50493;50.970;10.082;2023-07-13T10:52:45;1.10;;;1.00;;
64188;SDS011;50493;50.970;10.082;2023-07-13T10:55:30;1.90;;;1.10;;
64188;SDS011;50493;50.970;10.082;2023-07-13T10:57:59;1.48;;;1.00;;
64188;SDS011;50493;50.970;10.082;2023-07-13T11:00:25;3.08;;;0.98;;
64188;SDS011;50493;50.970;10.082;2023-07-13T11:02:55;2.85;;;1.00;;
64188;SDS011;50493;50.970;10.082;2023-07-13T11:05:25;1.58;;;1.10;;
64188;SDS011;50493;50.970;10.082;2023-07-13T11:07:56;2.47;;;1.30;;
64188;SDS011;50493;50.970;10.082;2023-07-13T11:16:36;3.90;;;1.13;;
64188;SDS011;50493;50.970;10.082;2023-07-13T11:19:37;1.67;;;1.08;;
64188;SDS011;50493;50.970;10.082;2023-07-13T11:22:12;1.23;;;0.90;;
64188;SDS011;50493;50.970;10.082;2023-07-13T11:24:51;2.00;;;1.02;;
64188;SDS011;50493;50.970;10.082;2023-07-13T11:27:33;1.05;;;0.90;;
64188;SDS011;50493;50.970;10.082;2023-07-13T11:30:23;1.98;;;1.25;;
64188;SDS011;50493;50.970;10.082;2023-07-13T11:33:03;2.55;;;1.10;;
64188;SDS011;50493;50.970;10.082;2023-07-13T11:35:38;1.60;;;0.98;;
64188;SDS011;50493;50.970;10.082;2023-07-13T11:38:12;1.85;;;1.00;;
64188;SDS011;50493;50.970;10.082;2023-07-13T11:40:43;1.92;;;1.13;;
64188;SDS011;50493;50.970;10.082;2023-07-13T11:43:11;2.05;;;0.90;;
64188;SDS011;50493;50.970;10.082;2023-07-13T11:45:38;1.00;;;0.90;;
64188;SDS011;50493;50.970;10.082;2023-07-13T11:48:04;0.95;;;0.82;;
64188;SDS011;50493;50.970;10.082;2023-07-13T11:50:29;1.65;;;1.00;;
64188;SDS011;50493;50.970;10.082;2023-07-13T11:52:57;1.95;;;1.10;;
64188;SDS011;50493;50.970;10.082;2023-07-13T11:55:24;1.73;;;1.10;;
64188;SDS011;50493;50.970;10.082;2023-07-13T11:57:53;1.95;;;0.90;;
64188;SDS011;50493;50.970;10.082;2023-07-13T12:00:25;1.42;;;1.00;;
64188;SDS011;50493;50.970;10.082;2023-07-13T12:02:54;2.20;;;1.10;;
64188;SDS011;50493;50.970;10.082;2023-07-13T12:05:21;1.38;;;1.00;;
64188;SDS011;50493;50.970;10.082;2023-07-13T12:07:49;2.30;;;0.90;;
64188;SDS011;50493;50.970;10.082;2023-07-13T12:10:17;1.83;;;0.80;;
64188;SDS011;50493;50.970;10.082;2023-07-13T12:12:47;1.13;;;0.70;;
64188;SDS011;50493;50.970;10.082;2023-07-13T12:15:15;2.80;;;0.90;;
64188;SDS011;50493;50.970;10.082;2023-07-13T12:17:40;1.55;;;1.00;;
64188;SDS011;50493;50.970;10.082;2023-07-13T12:20:12;1.85;;;0.80;;
64188;SDS011;50493;50.970;10.082;2023-07-13T12:22:45;2.05;;;0.90;;
64188;SDS011;50493;50.970;10.082;2023-07-13T12:25:12;1.85;;;1.00;;
64188;SDS011;50493;50.970;10.082;2023-07-13T12:27:38;2.33;;;1.05;;
64188;SDS011;50493;50.970;10.082;2023-07-13T12:30:05;1.92;;;1.00;;
64188;SDS011;50493;50.970;10.082;2023-07-13T12:32:55;1.45;;;1.00;;
64188;SDS011;50493;50.970;10.082;2023-07-13T12:35:22;1.30;;;1.10;;
64188;SDS011;50493;50.970;10.082;2023-07-13T12:37:47;1.58;;;1.00;;
64188;SDS011;50493;50.970;10.082;2023-07-13T12:40:13;3.10;;;1.00;;
64188;SDS011;50493;50.970;10.082;2023-07-13T12:42:40;1.23;;;0.98;;
64188;SDS011;50493;50.970;10.082;2023-07-13T12:45:11;1.35;;;0.95;;
64188;SDS011;50493;50.970;10.082;2023-07-13T12:47:43;1.73;;;0.90;;
64188;SDS011;50493;50.970;10.082;2023-07-13T12:50:16;3.22;;;1.10;;
64188;SDS011;50493;50.970;10.082;2023-07-13T12:52:43;2.38;;;1.10;;
64188;SDS011;50493;50.970;10.082;2023-07-13T12:55:10;1.35;;;0.93;;
64188;SDS011;50493;50.970;10.082;2023-07-13T12:57:44;2.70;;;0.88;;
64188;SDS011;50493;50.970;10.082;2023-07-13T13:00:20;1.75;;;0.98;;
64188;SDS011;50493;50.970;10.082;2023-07-13T13:02:49;2.75;;;1.10;;
64188;SDS011;50493;50.970;10.082;2023-07-13T13:05:17;1.88;;;0.90;;
64188;SDS011;50493;50.970;10.082;2023-07-13T13:07:43;1.30;;;1.00;;
64188;SDS011;50493;50.970;10.082;2023-07-13T13:10:13;1.75;;;1.02;;
64188;SDS011;50493;50.970;10.082;2023-07-13T13:12:39;1.67;;;1.00;;
64188;SDS011;50493;50.970;10.082;2023-07-13T13:15:07;2.03;;;1.00;;
64188;SDS011;50493;50.970;10.082;2023-07-13T13:17:33;1.95;;;0.98;;
64188;SDS011;50493;50.970;10.082;2023-07-13T13:19:59;1.92;;;0.95;;
64188;SDS011;50493;50.970;10.082;2023-07-13T13:22:26;1.63;;;1.00;;
64188;SDS011;50493;50.970;10.082;2023-07-13T13:24:51;2.15;;;1.00;;
64188;SDS011;50493;50.970;10.082;2023-07-13T13:27:17;3.30;;;0.95;;
64188;SDS011;50493;50.970;10.082;2023-07-13T13:29:44;1.05;;;0.80;;
64188;SDS011;50493;50.970;10.082;2023-07-13T13:32:11;1.10;;;1.00;;
64188;SDS011;50493;50.970;10.082;2023-07-13T13:34:38;2.60;;;1.10;;
64188;SDS011;50493;50.970;10.082;2023-07-13T13:37:04;1.25;;;0.90;;
64188;SDS011;50493;50.970;10.082;2023-07-13T13:39:38;1.58;;;0.80;;
64188;SDS011;50493;50.970;10.082;2023-07-13T13:42:03;1.58;;;0.90;;
64188;SDS011;50493;50.970;10.082;2023-07-13T13:44:29;1.33;;;0.90;;
64188;SDS011;50493;50.970;10.082;2023-07-13T13:46:55;1.20;;;1.00;;
64188;SDS011;50493;50.970;10.082;2023-07-13T13:49:23;1.27;;;0.90;;
64188;SDS011;50493;50.970;10.082;2023-07-13T13:51:49;1.67;;;0.98;;
64188;SDS011;50493;50.970;10.082;2023-07-13T13:54:15;1.42;;;0.90;;
64188;SDS011;50493;50.970;10.082;2023-07-13T13:56:44;1.33;;;0.90;;
64188;SDS011;50493;50.970;10.082;2023-07-13T13:59:11;1.42;;;0.95;;
64188;SDS011;50493;50.970;10.082;2023-07-13T14:01:36;1.95;;;0.90;;
64188;SDS011;50493;50.970;10.082;2023-07-13T14:04:03;2.85;;;1.10;;
64188;SDS011;50493;50.970;10.082;2023-07-13T14:06:28;2.13;;;1.25;;
64188;SDS011;50493;50.970;10.082;2023-07-13T14:08:54;1.85;;;0.98;;
64188;SDS011;50493;50.970;10.082;2023-07-13T14:11:22;5.05;;;1.10;;
64188;SDS011;50493;50.970;10.082;2023-07-13T14:13:50;1.95;;;0.80;;
64188;SDS011;50493;50.970;10.082;2023-07-13T14:16:18;1.50;;;1.00;;
64188;SDS011;50493;50.970;10.082;2023-07-13T14:18:46;2.28;;;1.00;;
64188;SDS011;50493;50.970;10.082;2023-07-13T14:21:13;1.40;;;0.85;;
64188;SDS011;50493;50.970;10.082;2023-07-13T14:23:39;1.83;;;1.10;;
64188;SDS011;50493;50.970;10.082;2023-07-13T14:26:07;1.00;;;0.77;;
64188;SDS011;50493;50.970;10.082;2023-07-13T14:28:35;2.00;;;1.10;;
64188;SDS011;50493;50.970;10.082;2023-07-13T14:31:05;2.35;;;1.17;;
64188;SDS011;50493;50.970;10.082;2023-07-13T14:33:30;2.35;;;1.13;;
64188;SDS011;50493;50.970;10.082;2023-07-13T14:35:55;1.27;;;1.00;;
64188;SDS011;50493;50.970;10.082;2023-07-13T14:38:21;1.55;;;1.10;;
64188;SDS011;50493;50.970;10.082;2023-07-13T14:40:46;1.25;;;1.00;;
64188;SDS011;50493;50.970;10.082;2023-07-13T14:43:13;1.48;;;1.00;;
64188;SDS011;50493;50.970;10.082;2023-07-13T14:45:39;1.77;;;1.00;;
64188;SDS011;50493;50.970;10.082;2023-07-13T14:48:12;1.55;;;0.90;;
64188;SDS011;50493;50.970;10.082;2023-07-13T14:50:41;3.05;;;1.20;;